Bratislava, Slovakia
Current Conditions -  °F | °C
As of 10:00 PM on Sunday 23 Nov 2014 (Local Time) from LZIB Reporting Station
Overcast Overcast  
Wind Chill: 37°   Ceiling: 2600
Heat Index: 43°   Visibility: 6mi
Dew Point: 36°   Wind: 9mph
Humidity: 76%   Direction: 130°SE
Pressure: 30.39"   Gusts: NA
Location:  48.16°N, 17.13°E
Report Text: LZIB 232000Z 13008KT 9999 OVC026 06/02 Q1029
Loading
Personal Weather Stations






























Interactive Weather Map New forecast layout! Learn more

10-Day Weather Forecast

Advertisements
Track Severe Weather on mobile